createdAt,value
2018-03-04T00:00:40.348Z,1.2
2018-03-04T00:01:42.762Z,1.3
2018-03-04T00:02:45.470Z,1.1
2018-03-04T00:03:47.882Z,1.2
2018-03-04T00:04:50.303Z,1.2
2018-03-04T00:05:52.715Z,1.1
2018-03-04T00:06:55.133Z,1.1
2018-03-04T00:07:57.548Z,0.9
2018-03-04T00:08:59.953Z,0.9
2018-03-04T00:10:02.372Z,0.9
2018-03-04T00:11:05.377Z,0.9
2018-03-04T00:12:07.793Z,0.9
2018-03-04T00:13:10.212Z,1.1
2018-03-04T00:14:12.903Z,1.2
2018-03-04T00:15:15.313Z,1.2
2018-03-04T00:16:17.726Z,1.2
2018-03-04T00:17:20.140Z,1.2
2018-03-04T00:18:22.551Z,1.1
2018-03-04T00:19:24.961Z,0.9
2018-03-04T00:20:27.370Z,0.9
2018-03-04T00:21:29.797Z,0.9
2018-03-04T00:22:32.496Z,0.9
2018-03-04T00:23:34.899Z,1.1
2018-03-04T00:24:37.318Z,1.1
2018-03-04T00:25:39.731Z,1.2
2018-03-04T00:26:42.142Z,1.1
2018-03-04T00:27:44.895Z,1.2
2018-03-04T00:28:47.260Z,1.2
2018-03-04T00:29:49.671Z,1.2
2018-03-04T00:30:52.394Z,0.9
2018-03-04T00:31:55.093Z,0.9
2018-03-04T00:32:57.499Z,0.9
2018-03-04T00:33:59.920Z,0.9
2018-03-04T00:35:02.620Z,0.9
2018-03-04T00:36:05.026Z,1.2
2018-03-04T00:37:07.432Z,1.2
2018-03-04T00:38:09.848Z,1.1
2018-03-04T00:39:12.263Z,1.2
2018-03-04T00:40:14.666Z,1.2
2018-03-04T00:41:17.074Z,1.2
2018-03-04T00:42:19.772Z,1.1
2018-03-04T00:43:22.185Z,1.1
2018-03-04T00:44:24.601Z,0.9
2018-03-04T00:45:27.007Z,0.9
2018-03-04T00:46:29.414Z,0.9
2018-03-04T00:47:31.831Z,1
2018-03-04T00:48:34.244Z,1.2
2018-03-04T00:49:36.657Z,1.1
2018-03-04T00:50:39.069Z,1.1
2018-03-04T00:51:41.474Z,1.1
2018-03-04T00:52:44.177Z,0.9
2018-03-04T00:53:46.590Z,0.9
2018-03-04T00:54:48.990Z,1
2018-03-04T00:55:51.407Z,0.9
2018-03-04T00:56:53.812Z,0.9
2018-03-04T00:57:56.505Z,1.2
2018-03-04T00:58:58.923Z,1.2
2018-03-04T01:00:01.625Z,1.2
2018-03-04T01:01:04.633Z,1.1
2018-03-04T01:02:07.053Z,1.2
2018-03-04T01:03:09.458Z,1.1
2018-03-04T01:04:11.869Z,1.1
2018-03-04T01:05:14.277Z,1.2
2018-03-04T01:06:16.696Z,0.9
2018-03-04T01:07:19.100Z,0.9
2018-03-04T01:08:21.511Z,0.9
2018-03-04T01:09:23.923Z,0.9
2018-03-04T01:10:26.336Z,1.1
2018-03-04T01:11:28.754Z,1.2
2018-03-04T01:12:31.176Z,1.2
2018-03-04T01:13:33.577Z,1.3
2018-03-04T01:14:35.993Z,1.1
2018-03-04T01:15:38.405Z,0.9
2018-03-04T01:16:40.816Z,0.9
2018-03-04T01:17:43.230Z,0.9
2018-03-04T01:18:45.639Z,0.9
2018-03-04T01:19:48.336Z,1.1
2018-03-04T01:20:50.751Z,1.2
2018-03-04T01:21:53.158Z,1.1
2018-03-04T01:22:55.849Z,1.1
2018-03-04T01:23:58.566Z,1.2
2018-03-04T01:25:00.983Z,1.1
2018-03-04T01:26:03.389Z,1.2
2018-03-04T01:27:05.806Z,0.9
2018-03-04T01:28:08.506Z,0.9
2018-03-04T01:29:10.921Z,0.9
2018-03-04T01:30:13.630Z,0.9
2018-03-04T01:31:16.619Z,0.9
2018-03-04T01:32:19.020Z,0.9
2018-03-04T01:33:21.430Z,0.9
2018-03-04T01:34:23.843Z,0.9
2018-03-04T01:35:26.251Z,1
2018-03-04T01:36:28.951Z,1.2
2018-03-04T01:37:31.662Z,1.2
2018-03-04T01:38:34.078Z,1.2
2018-03-04T01:39:36.778Z,1.1
2018-03-04T01:40:39.507Z,1.3
2018-03-04T01:41:42.225Z,1.1
2018-03-04T01:42:44.633Z,1.1
2018-03-04T01:43:47.053Z,0.9
2018-03-04T01:44:49.446Z,0.9
2018-03-04T01:45:51.858Z,0.9
2018-03-04T01:46:54.275Z,0.9
2018-03-04T01:47:56.688Z,0.9
2018-03-04T01:48:59.098Z,1.1
2018-03-04T01:50:01.504Z,1.2
2018-03-04T01:51:04.192Z,1.2
2018-03-04T01:52:06.615Z,1.2
2018-03-04T01:53:09.017Z,1.2
2018-03-04T01:54:11.426Z,1.1
2018-03-04T01:55:14.130Z,1
2018-03-04T01:56:16.542Z,1
2018-03-04T01:57:18.961Z,0.9
2018-03-04T01:58:21.380Z,0.9
2018-03-04T01:59:23.788Z,0.9
2018-03-04T02:00:26.506Z,1.3
2018-03-04T02:01:28.910Z,1.2
2018-03-04T02:02:31.328Z,1.2
2018-03-04T02:03:33.899Z,1
2018-03-04T02:04:36.303Z,1
2018-03-04T02:05:38.715Z,1.1
2018-03-04T02:06:41.122Z,0.9
2018-03-04T02:07:43.532Z,0.9
2018-03-04T02:08:45.949Z,0.9
2018-03-04T02:09:48.346Z,1.1
2018-03-04T02:10:50.767Z,1.2
2018-03-04T02:11:53.177Z,1.2
2018-03-04T02:12:55.577Z,0.9
2018-03-04T02:13:57.988Z,0.9
2018-03-04T02:15:00.972Z,1.1
2018-03-04T02:16:03.382Z,0.9
2018-03-04T02:17:05.796Z,1.1
2018-03-04T02:18:08.199Z,0.9
2018-03-04T02:19:10.905Z,0.9
2018-03-04T02:20:13.637Z,0.9
2018-03-04T02:21:16.032Z,0.9
2018-03-04T02:22:18.749Z,0.9
2018-03-04T02:23:21.445Z,0.9
2018-03-04T02:24:23.850Z,1.1
2018-03-04T02:25:26.560Z,1.2
2018-03-04T02:26:28.971Z,1.2
2018-03-04T02:27:31.374Z,1.1
2018-03-04T02:28:33.783Z,1.1
2018-03-04T02:29:36.481Z,1.1
2018-03-04T02:30:38.886Z,1
2018-03-04T02:31:41.300Z,0.9
2018-03-04T02:32:44.287Z,0.9
2018-03-04T02:33:46.992Z,0.9
2018-03-04T02:34:49.408Z,0.9
2018-03-04T02:35:51.820Z,0.9
2018-03-04T02:36:54.217Z,0.9
2018-03-04T02:37:56.632Z,0.9
2018-03-04T02:38:59.333Z,1.1
2018-03-04T02:40:01.745Z,1.1
2018-03-04T02:41:04.159Z,1.2
2018-03-04T02:42:06.575Z,1.1
2018-03-04T02:43:08.982Z,1
2018-03-04T02:44:11.409Z,1.2
2018-03-04T02:45:14.101Z,0.9
2018-03-04T02:46:16.505Z,0.9
2018-03-04T02:47:19.204Z,0.9
2018-03-04T02:48:21.608Z,0.9
2018-03-04T02:49:24.314Z,0.9
2018-03-04T02:50:27.304Z,0.9
2018-03-04T02:51:30.006Z,1.2
2018-03-04T02:52:32.417Z,0.9
2018-03-04T02:53:35.120Z,0.9
2018-03-04T02:54:37.532Z,1.1
2018-03-04T02:55:39.941Z,1.1
2018-03-04T02:56:42.344Z,1.4
2018-03-04T02:57:45.066Z,1.3
2018-03-04T02:58:47.840Z,1.1
2018-03-04T02:59:50.542Z,1.1
2018-03-04T03:00:53.252Z,1.1
2018-03-04T03:01:55.948Z,1.2
2018-03-04T03:02:58.361Z,1.1
2018-03-04T03:04:00.768Z,0.9
2018-03-04T03:05:03.486Z,1.1
2018-03-04T03:06:05.900Z,0.9
2018-03-04T03:07:08.606Z,0.9
2018-03-04T03:08:11.291Z,0.9
2018-03-04T03:09:13.711Z,0.9
2018-03-04T03:10:16.119Z,0.9
2018-03-04T03:11:18.535Z,0.9
2018-03-04T03:12:21.229Z,0.9
2018-03-04T03:13:23.640Z,1.1
2018-03-04T03:14:26.335Z,1.2
2018-03-04T03:15:29.044Z,1.3
2018-03-04T03:16:31.725Z,1.2
2018-03-04T03:17:34.150Z,1.3
2018-03-04T03:18:36.566Z,1.2
2018-03-04T03:19:38.979Z,1
2018-03-04T03:20:41.397Z,1.2
2018-03-04T03:21:44.094Z,0.9
2018-03-04T03:22:46.497Z,0.9
2018-03-04T03:23:48.921Z,0.9
2018-03-04T03:24:51.318Z,0.9
2018-03-04T03:25:53.729Z,0.9
2018-03-04T03:26:56.138Z,1.2
2018-03-04T03:27:58.547Z,1.1
2018-03-04T03:29:00.962Z,1.2
2018-03-04T03:30:03.379Z,1.1
2018-03-04T03:31:05.787Z,1
2018-03-04T03:32:08.189Z,0.9
2018-03-04T03:33:10.594Z,0.9
2018-03-04T03:34:13.302Z,0.9
2018-03-04T03:35:15.704Z,0.9
2018-03-04T03:36:18.111Z,0.9
2018-03-04T03:37:20.511Z,1.3
2018-03-04T03:38:22.920Z,1.2
2018-03-04T03:39:25.342Z,1.2
2018-03-04T03:40:28.063Z,1.2
2018-03-04T03:41:30.761Z,1
2018-03-04T03:42:33.176Z,0.9
2018-03-04T03:43:35.589Z,1.1
2018-03-04T03:44:38.595Z,1.1
2018-03-04T03:45:41.006Z,1
2018-03-04T03:46:43.409Z,0.9
2018-03-04T03:47:45.817Z,0.9
2018-03-04T03:48:48.529Z,1.2
2018-03-04T03:49:51.228Z,1.1
2018-03-04T03:50:53.643Z,1.4
2018-03-04T03:51:56.638Z,1.3
2018-03-04T03:52:59.049Z,1.3
2018-03-04T03:54:01.458Z,1.2
2018-03-04T03:55:04.164Z,1.2
2018-03-04T03:56:06.567Z,1.1
2018-03-04T03:57:08.979Z,1.2
2018-03-04T03:58:11.699Z,1.1
2018-03-04T03:59:14.112Z,1
2018-03-04T04:00:16.525Z,0.9
2018-03-04T04:01:18.935Z,1
2018-03-04T04:02:21.634Z,0.9
2018-03-04T04:03:24.047Z,0.9
2018-03-04T04:04:26.739Z,0.9
2018-03-04T04:05:29.455Z,0.9
2018-03-04T04:06:32.169Z,0.9
2018-03-04T04:07:34.580Z,0.9
2018-03-04T04:08:36.996Z,0.9
2018-03-04T04:09:39.398Z,1.2
2018-03-04T04:10:41.811Z,1.1
2018-03-04T04:11:44.220Z,1.2
2018-03-04T04:12:46.624Z,1.1
2018-03-04T04:13:49.033Z,0.9
2018-03-04T04:14:51.434Z,0.9
2018-03-04T04:15:53.841Z,0.9
2018-03-04T04:16:56.252Z,0.9
2018-03-04T04:17:58.660Z,0.9
2018-03-04T04:19:01.068Z,1.1
2018-03-04T04:20:04.088Z,1.1
2018-03-04T04:21:06.777Z,1.1
2018-03-04T04:22:09.186Z,1.4
2018-03-04T04:23:11.595Z,1.2
2018-03-04T04:24:14.001Z,1.2
2018-03-04T04:25:16.419Z,1.2
2018-03-04T04:26:18.824Z,0.9
2018-03-04T04:27:21.520Z,0.9
2018-03-04T04:28:23.931Z,0.9
2018-03-04T04:29:26.337Z,0.9
2018-03-04T04:30:28.740Z,0.9
2018-03-04T04:31:31.451Z,1
2018-03-04T04:32:33.864Z,1.2
2018-03-04T04:33:36.573Z,1.1
2018-03-04T04:34:38.983Z,1.3
2018-03-04T04:35:41.390Z,1.1
2018-03-04T04:36:43.797Z,1.2
2018-03-04T04:37:46.209Z,1
2018-03-04T04:38:48.608Z,0.9
2018-03-04T04:39:51.021Z,0.9
2018-03-04T04:40:53.718Z,0.9
2018-03-04T04:41:56.416Z,0.9
2018-03-04T04:42:58.828Z,0.9
2018-03-04T04:44:01.242Z,0.9
2018-03-04T04:45:03.650Z,0.9
2018-03-04T04:46:06.062Z,1.1
2018-03-04T04:47:08.470Z,1.2
2018-03-04T04:48:10.885Z,1.2
2018-03-04T04:49:13.287Z,0.9
2018-03-04T04:50:15.704Z,1
2018-03-04T04:51:18.109Z,0.9
2018-03-04T04:52:20.513Z,0.9
2018-03-04T04:53:22.922Z,0.9
2018-03-04T04:54:25.327Z,0.9
2018-03-04T04:55:27.736Z,1.1
2018-03-04T04:56:30.151Z,1.2
2018-03-04T04:57:32.548Z,1.2
2018-03-04T04:58:34.964Z,0.9
2018-03-04T04:59:37.379Z,1.1
2018-03-04T05:00:40.082Z,0.9
2018-03-04T05:01:42.488Z,0.9
2018-03-04T05:02:44.910Z,0.9
2018-03-04T05:03:47.907Z,0.9
2018-03-04T05:04:50.590Z,0.9
2018-03-04T05:05:53.011Z,0.9
2018-03-04T05:06:55.712Z,0.9
2018-03-04T05:07:58.121Z,0.9
2018-03-04T05:09:00.833Z,1.1
2018-03-04T05:10:03.233Z,1.2
2018-03-04T05:11:05.641Z,1.1
2018-03-04T05:12:08.064Z,1.1
2018-03-04T05:13:10.475Z,1.1
2018-03-04T05:14:13.170Z,0.9
2018-03-04T05:15:15.586Z,1.1
2018-03-04T05:16:17.994Z,0.9
2018-03-04T05:17:20.404Z,0.9
2018-03-04T05:18:22.810Z,1.2
2018-03-04T05:19:25.217Z,0.9
2018-03-04T05:20:27.623Z,1.3
2018-03-04T05:21:30.325Z,1.2
2018-03-04T05:22:32.729Z,1.2
2018-03-04T05:23:35.137Z,1
2018-03-04T05:24:37.552Z,1.1
2018-03-04T05:25:39.962Z,1.1
2018-03-04T05:26:42.367Z,0.9
2018-03-04T05:27:44.781Z,0.9
2018-03-04T05:28:47.470Z,0.9
2018-03-04T05:29:49.880Z,0.9
2018-03-04T05:30:52.292Z,0.9
2018-03-04T05:31:54.698Z,1.1
2018-03-04T05:32:57.110Z,1.2
2018-03-04T05:33:59.524Z,1.1
2018-03-04T05:35:02.226Z,1.1
2018-03-04T05:36:04.641Z,1.1
2018-03-04T05:37:07.051Z,1.1
2018-03-04T05:38:09.454Z,0.9
2018-03-04T05:39:12.159Z,0.9
2018-03-04T05:40:14.863Z,0.9
2018-03-04T05:41:17.269Z,0.9
2018-03-04T05:42:19.675Z,1
2018-03-04T05:43:22.084Z,0.9
2018-03-04T05:44:24.489Z,1.2
2018-03-04T05:45:26.909Z,1.2
2018-03-04T05:46:29.319Z,0.9
2018-03-04T05:47:32.284Z,1.1
2018-03-04T05:48:34.693Z,1.1
2018-03-04T05:49:37.107Z,1.3
2018-03-04T05:50:39.514Z,1
2018-03-04T05:51:42.217Z,0.9
2018-03-04T05:52:44.626Z,0.9
2018-03-04T05:53:47.026Z,1
2018-03-04T05:54:49.744Z,0.9
2018-03-04T05:55:52.155Z,1.2
2018-03-04T05:56:54.556Z,0.9
2018-03-04T05:57:56.972Z,1.3
2018-03-04T05:58:59.381Z,1.2
2018-03-04T06:00:02.071Z,1.2
2018-03-04T06:01:04.551Z,1
2018-03-04T06:02:06.896Z,1.1
2018-03-04T06:03:09.300Z,1.1
2018-03-04T06:04:11.993Z,0.9
2018-03-04T06:05:14.692Z,0.9
2018-03-04T06:06:17.104Z,0.9
2018-03-04T06:07:19.524Z,0.9
2018-03-04T06:08:22.519Z,0.9
2018-03-04T06:09:24.925Z,1.2
2018-03-04T06:10:27.335Z,0.9
2018-03-04T06:11:29.738Z,1.1
2018-03-04T06:12:32.151Z,1.1
2018-03-04T06:13:34.556Z,1.3
2018-03-04T06:14:36.965Z,0.9
2018-03-04T06:15:39.378Z,0.9
2018-03-04T06:16:42.361Z,0.9
2018-03-04T06:17:44.766Z,1
2018-03-04T06:18:47.179Z,0.9
2018-03-04T06:19:49.882Z,0.9
2018-03-04T06:20:52.297Z,1
2018-03-04T06:21:54.700Z,0.9
2018-03-04T06:22:57.118Z,1.2
2018-03-04T06:23:59.533Z,1.3
2018-03-04T06:25:01.943Z,1.1
2018-03-04T06:26:04.351Z,1.1
2018-03-04T06:27:07.050Z,1.2
2018-03-04T06:28:09.452Z,1.1
2018-03-04T06:29:11.868Z,1
2018-03-04T06:30:14.557Z,0.9
2018-03-04T06:31:16.966Z,1.3
2018-03-04T06:32:19.689Z,1
2018-03-04T06:33:22.092Z,1
2018-03-04T06:34:24.499Z,1
2018-03-04T06:35:26.917Z,1.2
2018-03-04T06:36:29.894Z,1.2
2018-03-04T06:37:32.302Z,1.2
2018-03-04T06:38:34.712Z,1.1
2018-03-04T06:39:37.123Z,1.2
2018-03-04T06:40:39.531Z,1
2018-03-04T06:41:41.947Z,1
2018-03-04T06:42:44.346Z,1
2018-03-04T06:43:47.048Z,1
2018-03-04T06:44:49.461Z,0.9
2018-03-04T06:45:52.165Z,0.9
2018-03-04T06:46:54.586Z,1
2018-03-04T06:47:56.994Z,1.2
2018-03-04T06:48:59.710Z,1.2
2018-03-04T06:50:02.202Z,1.3
2018-03-04T06:51:04.538Z,1.2
2018-03-04T06:52:06.948Z,1.3
2018-03-04T06:53:09.365Z,1.2
2018-03-04T06:54:11.764Z,0.9
2018-03-04T06:55:14.173Z,0.9
2018-03-04T06:56:16.590Z,0.9
2018-03-04T06:57:19.669Z,0.9
2018-03-04T06:58:22.645Z,1.2
2018-03-04T06:59:25.280Z,1
2018-03-04T07:00:27.725Z,1
2018-03-04T07:01:31.341Z,1
2018-03-04T07:02:35.335Z,1
2018-03-04T07:03:37.751Z,1.3
2018-03-04T07:04:40.164Z,1.3
2018-03-04T07:05:42.859Z,1
2018-03-04T07:06:45.553Z,1
2018-03-04T07:07:47.968Z,1.1
2018-03-04T07:08:50.377Z,1
2018-03-04T07:09:52.790Z,0.9
2018-03-04T07:10:55.498Z,0.9
2018-03-04T07:11:57.917Z,1.2
2018-03-04T07:13:00.331Z,1.3
2018-03-04T07:14:02.751Z,1.1
2018-03-04T07:15:06.031Z,1.3
2018-03-04T07:16:08.443Z,1.3
2018-03-04T07:17:10.851Z,1.2
2018-03-04T07:18:13.271Z,1.3
2018-03-04T07:19:15.683Z,1.2
2018-03-04T07:20:18.373Z,1.1
2018-03-04T07:21:21.090Z,1.1
2018-03-04T07:22:23.781Z,1
2018-03-04T07:23:26.236Z,1
2018-03-04T07:24:28.901Z,0.9
2018-03-04T07:25:31.308Z,1
2018-03-04T07:26:33.716Z,1
2018-03-04T07:27:36.138Z,1
2018-03-04T07:28:38.547Z,1.2
2018-03-04T07:29:40.963Z,1.3
2018-03-04T07:30:43.375Z,1.4
2018-03-04T07:31:45.787Z,1.2
2018-03-04T07:32:48.201Z,1.1
2018-03-04T07:33:50.902Z,1
2018-03-04T07:34:53.314Z,1
2018-03-04T07:35:56.007Z,0.9
2018-03-04T07:36:58.724Z,1
2018-03-04T07:38:01.137Z,0.9
2018-03-04T07:39:03.554Z,0.9
2018-03-04T07:40:05.964Z,1.3
2018-03-04T07:41:08.672Z,1.1
2018-03-04T07:42:11.081Z,1.1
2018-03-04T07:43:13.512Z,1.2
2018-03-04T07:44:16.196Z,1.3
2018-03-04T07:45:18.618Z,1
2018-03-04T07:46:21.349Z,1.1
2018-03-04T07:47:23.761Z,1.1
2018-03-04T07:48:26.175Z,1
2018-03-04T07:49:28.587Z,0.9
2018-03-04T07:50:30.995Z,0.9
2018-03-04T07:51:33.419Z,1.2
2018-03-04T07:52:35.843Z,1.4
2018-03-04T07:53:38.238Z,1.3
2018-03-04T07:54:40.654Z,1.2
2018-03-04T07:55:43.076Z,1.2
2018-03-04T07:56:45.486Z,1.1
2018-03-04T07:57:47.897Z,1
2018-03-04T07:58:50.347Z,1
2018-03-04T07:59:52.760Z,0.9
2018-03-04T08:00:55.177Z,1
2018-03-04T08:01:57.592Z,1.2
2018-03-04T08:03:00.002Z,1.1
2018-03-04T08:04:02.413Z,1.1
2018-03-04T08:05:04.830Z,1.1
2018-03-04T08:06:07.230Z,1
2018-03-04T08:07:09.644Z,0.9
2018-03-04T08:08:12.069Z,1
2018-03-04T08:09:14.779Z,0.9
2018-03-04T08:10:17.193Z,1.4
2018-03-04T08:11:19.604Z,1.2
2018-03-04T08:12:22.017Z,1.3
2018-03-04T08:13:24.426Z,1.2
2018-03-04T08:14:27.139Z,1
2018-03-04T08:15:29.546Z,1
2018-03-04T08:16:31.951Z,1.2
2018-03-04T08:17:34.376Z,1
2018-03-04T08:18:36.779Z,1
2018-03-04T08:19:39.193Z,1
2018-03-04T08:20:41.598Z,1.1
2018-03-04T08:21:44.010Z,1.2
2018-03-04T08:22:46.428Z,1.3
2018-03-04T08:23:48.912Z,1.3
2018-03-04T08:24:51.254Z,1
2018-03-04T08:25:53.668Z,1.1
2018-03-04T08:26:56.081Z,1
2018-03-04T08:27:58.491Z,1
2018-03-04T08:29:01.186Z,1
2018-03-04T08:30:03.614Z,1.3
2018-03-04T08:31:06.010Z,1.3
2018-03-04T08:32:08.424Z,1.5
2018-03-04T08:33:10.833Z,1.3
2018-03-04T08:34:13.264Z,1.1
2018-03-04T08:35:15.675Z,1
2018-03-04T08:36:18.091Z,1
2018-03-04T08:37:20.502Z,1
2018-03-04T08:38:22.915Z,1
2018-03-04T08:39:25.613Z,1
2018-03-04T08:40:28.312Z,1.4
2018-03-04T08:41:30.712Z,1.3
2018-03-04T08:42:33.124Z,1.2
2018-03-04T08:43:35.536Z,1.3
2018-03-04T08:44:37.949Z,1.3
2018-03-04T08:45:40.355Z,1.2
2018-03-04T08:46:42.772Z,1
2018-03-04T08:47:45.174Z,1
2018-03-04T08:48:47.599Z,1
2018-03-04T08:49:50.003Z,1.3
2018-03-04T08:50:52.420Z,1.4
2018-03-04T08:51:55.116Z,1.3
2018-03-04T08:52:57.527Z,1.3
2018-03-04T08:53:59.946Z,1.2
2018-03-04T08:55:02.364Z,1.1
2018-03-04T08:56:04.769Z,1.2
2018-03-04T08:57:07.183Z,1
2018-03-04T08:58:09.602Z,1
2018-03-04T08:59:12.019Z,1
2018-03-04T09:00:14.420Z,1.5
2018-03-04T09:01:16.838Z,1.3
2018-03-04T09:02:19.578Z,1.3
2018-03-04T09:03:22.249Z,1.1
2018-03-04T09:04:24.667Z,1.2
2018-03-04T09:05:27.666Z,1.2
2018-03-04T09:06:30.076Z,1.1
2018-03-04T09:07:32.500Z,1.2
2018-03-04T09:08:34.910Z,1
2018-03-04T09:09:37.320Z,1.1
2018-03-04T09:10:39.729Z,1
2018-03-04T09:11:42.136Z,1
2018-03-04T09:12:44.558Z,1.4
2018-03-04T09:13:46.978Z,1.3
2018-03-04T09:14:49.382Z,1.3
2018-03-04T09:15:51.796Z,1.3
2018-03-04T09:16:54.203Z,1.1
2018-03-04T09:17:56.902Z,1
2018-03-04T09:18:59.317Z,1
2018-03-04T09:20:02.017Z,1
2018-03-04T09:21:04.430Z,1
2018-03-04T09:22:06.855Z,1
2018-03-04T09:23:09.269Z,1.3
2018-03-04T09:24:11.680Z,1.4
2018-03-04T09:25:14.095Z,1.3
2018-03-04T09:26:16.509Z,1.2
2018-03-04T09:27:18.918Z,1.1
2018-03-04T09:28:21.332Z,1
2018-03-04T09:29:23.761Z,1
2018-03-04T09:30:26.180Z,1
2018-03-04T09:31:28.600Z,1.3
2018-03-04T09:32:31.319Z,1.4
2018-03-04T09:33:33.746Z,1.4
2018-03-04T09:34:36.156Z,1.4
2018-03-04T09:35:38.568Z,1.3
2018-03-04T09:36:40.980Z,1
2018-03-04T09:37:43.391Z,1.1
2018-03-04T09:38:45.817Z,1.1
2018-03-04T09:39:48.236Z,1.1
2018-03-04T09:40:50.679Z,1.3
2018-03-04T09:41:53.071Z,1.4
2018-03-04T09:42:55.491Z,1.3
2018-03-04T09:43:57.911Z,1.3
2018-03-04T09:45:00.330Z,1.2
2018-03-04T09:46:02.746Z,1.1
2018-03-04T09:47:05.160Z,1.1
2018-03-04T09:48:07.587Z,1.1
2018-03-04T09:49:10.003Z,1.4
2018-03-04T09:50:12.432Z,1.5
2018-03-04T09:51:14.848Z,1.3
2018-03-04T09:52:17.261Z,1.1
2018-03-04T09:53:19.975Z,1.2
2018-03-04T09:54:22.396Z,1.1
2018-03-04T09:55:24.803Z,1.1
2018-03-04T09:56:27.226Z,1.2
2018-03-04T09:57:29.656Z,1.2
2018-03-04T09:58:32.078Z,1.4
2018-03-04T09:59:34.505Z,1.5
2018-03-04T10:00:37.225Z,1.2
2018-03-04T10:01:39.648Z,1.4
2018-03-04T10:02:42.357Z,1.4
2018-03-04T10:03:44.784Z,1.3
2018-03-04T10:04:47.196Z,1.2
2018-03-04T10:05:49.627Z,1.2
2018-03-04T10:06:52.334Z,1.2
2018-03-04T10:07:54.755Z,1.4
2018-03-04T10:08:57.175Z,1.6
2018-03-04T10:09:59.598Z,1.4
2018-03-04T10:11:02.013Z,1.4
2018-03-04T10:12:04.438Z,1.3
2018-03-04T10:13:06.859Z,1.2
2018-03-04T10:14:09.585Z,1.2
2018-03-04T10:15:12.016Z,1.1
2018-03-04T10:16:14.437Z,1.4
2018-03-04T10:17:16.861Z,1.5
2018-03-04T10:18:19.288Z,1.5
2018-03-04T10:19:21.714Z,1.4
2018-03-04T10:20:24.153Z,1.4
2018-03-04T10:21:26.560Z,1.2
2018-03-04T10:22:28.985Z,1.1
2018-03-04T10:23:31.406Z,1.2
2018-03-04T10:24:33.832Z,1.5
2018-03-04T10:25:36.265Z,1.4
2018-03-04T10:26:38.693Z,1.6
2018-03-04T10:27:41.125Z,1.5
2018-03-04T10:28:43.541Z,1.2
2018-03-04T10:29:45.957Z,1.2
2018-03-04T10:30:48.683Z,1.2
2018-03-04T10:31:51.103Z,1.5
2018-03-04T10:32:53.523Z,1.5
2018-03-04T10:33:55.945Z,1.5
2018-03-04T10:34:58.660Z,1.5
2018-03-04T10:36:01.087Z,1.4
2018-03-04T10:37:03.519Z,1.2
2018-03-04T10:38:05.944Z,1.3
2018-03-04T10:39:08.378Z,1.3
2018-03-04T10:40:10.814Z,1.6
2018-03-04T10:41:13.240Z,1.6
2018-03-04T10:42:15.952Z,1.5
2018-03-04T10:43:18.371Z,1.5
2018-03-04T10:44:20.800Z,1.5
2018-03-04T10:45:23.246Z,1.3
2018-03-04T10:46:25.660Z,1.3
2018-03-04T10:47:28.094Z,1.2
2018-03-04T10:48:30.514Z,1.7
2018-03-04T10:49:32.940Z,1.7
2018-03-04T10:50:35.366Z,1.5
2018-03-04T10:51:37.792Z,1.5
2018-03-04T10:52:40.214Z,1.3
2018-03-04T10:53:42.950Z,1.3
2018-03-04T10:54:45.377Z,1.3
2018-03-04T10:55:47.810Z,1.3
2018-03-04T10:56:50.518Z,1.7
2018-03-04T10:57:52.954Z,1.7
2018-03-04T10:58:55.380Z,1.6
2018-03-04T10:59:57.807Z,1.7
2018-03-04T11:01:00.230Z,1.4
2018-03-04T11:02:02.665Z,1.3
2018-03-04T11:03:05.088Z,1.3
2018-03-04T11:04:07.530Z,1.6
2018-03-04T11:05:10.247Z,1.6
2018-03-04T11:06:12.952Z,1.8
2018-03-04T11:07:15.956Z,1.8
2018-03-04T11:08:18.381Z,1.7
2018-03-04T11:09:20.802Z,1.4
2018-03-04T11:10:23.239Z,1.3
2018-03-04T11:11:25.661Z,1.3
2018-03-04T11:12:28.095Z,1.3
2018-03-04T11:13:30.812Z,1.6
2018-03-04T11:14:33.243Z,1.6
2018-03-04T11:15:35.954Z,1.6
2018-03-04T11:16:38.394Z,1.7
2018-03-04T11:17:40.809Z,1.5
2018-03-04T11:18:43.250Z,1.3
2018-03-04T11:19:45.674Z,1.3
2018-03-04T11:20:48.102Z,1.3
2018-03-04T11:21:50.535Z,1.7
2018-03-04T11:22:53.249Z,1.7
2018-03-04T11:23:55.960Z,1.9
2018-03-04T11:24:58.675Z,1.8
2018-03-04T11:26:01.103Z,1.6
2018-03-04T11:27:04.114Z,1.6
2018-03-04T11:28:06.837Z,1.5
2018-03-04T11:29:09.256Z,1.3
2018-03-04T11:30:11.981Z,1.3
2018-03-04T11:31:14.401Z,1.3
2018-03-04T11:32:16.832Z,1.3
2018-03-04T11:33:19.256Z,1.4
2018-03-04T11:34:21.699Z,1.6
2018-03-04T11:35:24.128Z,1.7
2018-03-04T11:36:26.557Z,1.5
2018-03-04T11:37:28.975Z,1.5
2018-03-04T11:38:31.709Z,1.3
2018-03-04T11:39:34.445Z,1.3
2018-03-04T11:40:36.927Z,1.3
2018-03-04T11:41:39.579Z,1.3
2018-03-04T11:42:42.012Z,1.7
2018-03-04T11:43:44.434Z,1.8
2018-03-04T11:44:46.868Z,1.6
2018-03-04T11:45:49.292Z,1.5
2018-03-04T11:46:51.718Z,1.5
2018-03-04T11:47:54.142Z,1.3
2018-03-04T11:48:56.579Z,1.4
2018-03-04T11:49:59.007Z,1.4
2018-03-04T11:51:01.452Z,1.5
2018-03-04T11:52:03.862Z,1.5
2018-03-04T11:53:06.299Z,1.5
2018-03-04T11:54:08.732Z,1.7
2018-03-04T11:55:11.162Z,1.5
2018-03-04T11:56:13.591Z,1.4
2018-03-04T11:57:16.018Z,1.3
2018-03-04T11:58:18.734Z,1.7
2018-03-04T11:59:21.161Z,1.7
2018-03-04T12:00:23.584Z,1.7
2018-03-04T12:01:26.022Z,1.5
2018-03-04T12:02:28.446Z,1.4
2018-03-04T12:03:30.873Z,1.4
2018-03-04T12:04:33.299Z,1.3
2018-03-04T12:05:35.724Z,1.8
2018-03-04T12:06:38.154Z,1.6
2018-03-04T12:07:40.582Z,1.6
2018-03-04T12:08:43.004Z,1.5
2018-03-04T12:09:45.451Z,1.4
2018-03-04T12:10:47.874Z,1.5
2018-03-04T12:11:50.309Z,1.8
2018-03-04T12:12:52.740Z,1.8
2018-03-04T12:13:55.452Z,1.6
2018-03-04T12:14:57.880Z,1.5
2018-03-04T12:16:00.315Z,1.5
2018-03-04T12:17:03.041Z,1.4
2018-03-04T12:18:06.715Z,1.4
2018-03-04T12:19:10.250Z,1.4
2018-03-04T12:20:13.895Z,1.5
2018-03-04T12:21:17.687Z,1.7
2018-03-04T12:22:20.404Z,1.8
2018-03-04T12:23:22.830Z,1.4
2018-03-04T12:24:25.270Z,1.4
2018-03-04T12:25:28.358Z,1.9
2018-03-04T12:26:31.048Z,1.7
2018-03-04T12:27:33.485Z,1.7
2018-03-04T12:28:35.925Z,1.6
2018-03-04T12:29:38.362Z,1.4
2018-03-04T12:30:40.800Z,1.5
2018-03-04T12:31:43.223Z,1.4
2018-03-04T12:32:45.669Z,1.4
2018-03-04T12:33:51.459Z,1.8
2018-03-04T12:34:54.097Z,1.7
2018-03-04T12:35:57.922Z,1.7
2018-03-04T12:37:02.331Z,1.8
2018-03-04T12:38:04.773Z,1.8
2018-03-04T12:39:08.274Z,1.5
2018-03-04T12:40:13.909Z,1.6
2018-03-04T12:41:18.197Z,1.7
2018-03-04T12:42:20.812Z,1.4
2018-03-04T12:43:23.702Z,1.8
2018-03-04T12:44:26.155Z,1.7
2018-03-04T12:45:28.605Z,1.7
2018-03-04T12:46:31.035Z,1.7
2018-03-04T12:47:33.560Z,1.4
2018-03-04T12:48:35.904Z,1.4
2018-03-04T12:49:38.917Z,1.4
2018-03-04T12:50:41.346Z,1.4
2018-03-04T12:51:44.079Z,1.4
2018-03-04T12:52:46.502Z,1.7
2018-03-04T12:53:48.933Z,1.7
2018-03-04T12:54:51.363Z,1.9
2018-03-04T12:55:53.799Z,1.4
2018-03-04T12:56:56.224Z,1.4
2018-03-04T12:57:58.660Z,1.5
2018-03-04T12:59:01.092Z,1.4
2018-03-04T13:00:03.811Z,1.7
2018-03-04T13:01:06.525Z,2
2018-03-04T13:02:08.957Z,1.8
2018-03-04T13:03:11.390Z,1.6
2018-03-04T13:04:13.819Z,1.4
2018-03-04T13:05:16.252Z,1.4
2018-03-04T13:06:18.679Z,1.4
2018-03-04T13:07:21.105Z,1.7
2018-03-04T13:08:23.544Z,1.7
2018-03-04T13:09:26.247Z,1.6
2018-03-04T13:10:28.687Z,1.6
2018-03-04T13:11:31.106Z,1.5
2018-03-04T13:12:33.537Z,1.4
2018-03-04T13:13:35.961Z,1.4
2018-03-04T13:14:38.398Z,1.8
2018-03-04T13:15:40.826Z,1.7
2018-03-04T13:16:43.255Z,1.6
2018-03-04T13:17:45.678Z,1.7
2018-03-04T13:18:48.103Z,1.4
2018-03-04T13:19:50.827Z,1.4
2018-03-04T13:20:53.255Z,1.4
2018-03-04T13:21:55.996Z,1.7
2018-03-04T13:22:58.430Z,2
2018-03-04T13:24:00.883Z,1.8
2018-03-04T13:25:03.304Z,1.7
2018-03-04T13:26:05.747Z,1.4
2018-03-04T13:27:08.179Z,1.4
2018-03-04T13:28:10.613Z,1.5
2018-03-04T13:29:13.039Z,1.7
2018-03-04T13:30:16.049Z,1.7
2018-03-04T13:31:18.754Z,1.7
2018-03-04T13:32:21.196Z,1.8
2018-03-04T13:33:23.623Z,1.6
2018-03-04T13:34:26.056Z,1.6
2018-03-04T13:35:28.798Z,1.4
2018-03-04T13:36:31.233Z,1.4
2018-03-04T13:37:33.965Z,1.4
2018-03-04T13:38:36.400Z,1.4
2018-03-04T13:39:39.121Z,1.7
2018-03-04T13:40:41.594Z,1.8
2018-03-04T13:41:43.990Z,1.7
2018-03-04T13:42:46.715Z,1.7
2018-03-04T13:43:49.136Z,1.4
2018-03-04T13:44:51.610Z,1.4
2018-03-04T13:45:54.001Z,1.4
2018-03-04T13:46:56.435Z,1.7
2018-03-04T13:47:58.863Z,1.7
2018-03-04T13:49:01.590Z,1.6
2018-03-04T13:50:04.007Z,1.6
2018-03-04T13:51:06.456Z,1.5
2018-03-04T13:52:08.885Z,1.4
2018-03-04T13:53:11.309Z,1.4
2018-03-04T13:54:13.749Z,1.7
2018-03-04T13:55:16.184Z,1.8
2018-03-04T13:56:18.608Z,1.7
2018-03-04T13:57:21.038Z,1.5
2018-03-04T13:58:23.477Z,1.5
2018-03-04T13:59:26.190Z,1.4
2018-03-04T14:00:28.616Z,1.4
2018-03-04T14:01:31.045Z,1.7
2018-03-04T14:02:33.485Z,1.7
2018-03-04T14:03:35.910Z,1.7
2018-03-04T14:04:38.346Z,1.4
2018-03-04T14:05:40.776Z,1.4
2018-03-04T14:06:43.228Z,1.3
2018-03-04T14:07:45.689Z,1.4
2018-03-04T14:08:48.116Z,1.7
2018-03-04T14:09:50.552Z,1.8
2018-03-04T14:10:53.297Z,1.4
2018-03-04T14:11:55.733Z,1.5
2018-03-04T14:12:58.169Z,1.4
2018-03-04T14:14:00.620Z,1.4
2018-03-04T14:15:03.049Z,1.4
2018-03-04T14:16:05.493Z,1.7
2018-03-04T14:17:08.230Z,1.8
2018-03-04T14:18:10.673Z,1.6
2018-03-04T14:19:13.405Z,1.6
2018-03-04T14:20:15.844Z,1.5
2018-03-04T14:21:18.280Z,1.4
2018-03-04T14:22:21.025Z,1.4
2018-03-04T14:23:23.444Z,1.4
2018-03-04T14:24:25.887Z,1.6
2018-03-04T14:25:28.318Z,1.7
2018-03-04T14:26:30.758Z,1.6
2018-03-04T14:27:33.491Z,1.5